Time;durP1;ratioP1;P1;durP2;ratioP2;P2;SDS_P1;SDS_P2;PMS_P1;PMS_P2;Temp;Humidity;BMP_temperature;BMP_pressure;BME280_temperature;BME280_humidity;BME280_pressure;Samples;Min_cycle;Max_cycle;Signal;HPM_P1;HPM_P2
2021/07/30 00:00:35;;;;;;;3.42;1.27;;;15.50;76.40;;;;;;5091268;28;20536;-76
2021/07/30 00:03:02;;;;;;;3.63;1.65;;;15.50;75.90;;;;;;5107002;27;20066;-76
2021/07/30 00:05:29;;;;;;;2.55;1.08;;;15.50;75.90;;;;;;5111305;27;20498;-76
2021/07/30 00:07:57;;;;;;;5.10;1.42;;;15.40;75.90;;;;;;5111606;27;20035;-76
2021/07/30 00:10:23;;;;;;;2.67;1.08;;;15.40;76.00;;;;;;5110207;27;20491;-76
2021/07/30 00:12:55;;;;;;;4.35;1.15;;;15.30;76.00;;;;;;5111205;27;20134;-76
2021/07/30 00:15:23;;;;;;;4.88;0.90;;;15.40;76.20;;;;;;5111377;27;20388;-76
2021/07/30 00:17:51;;;;;;;2.22;0.80;;;15.30;76.20;;;;;;5112155;27;20039;-76
2021/07/30 00:20:18;;;;;;;3.63;0.90;;;15.30;76.30;;;;;;5108037;27;20047;-76
2021/07/30 00:22:45;;;;;;;2.85;1.13;;;15.30;76.30;;;;;;5110412;27;20104;-77
2021/07/30 00:25:12;;;;;;;3.42;1.10;;;15.20;76.30;;;;;;5113655;28;20050;-76
2021/07/30 00:27:39;;;;;;;2.50;1.00;;;15.30;76.40;;;;;;5116235;27;20038;-75
2021/07/30 00:30:07;;;;;;;5.28;1.33;;;15.20;76.50;;;;;;5107829;27;20459;-76
2021/07/30 00:32:34;;;;;;;3.22;0.90;;;15.20;76.50;;;;;;5092899;28;20044;-76
2021/07/30 00:35:02;;;;;;;4.78;1.20;;;15.20;76.60;;;;;;5107196;27;20040;-76
2021/07/30 00:37:29;;;;;;;3.13;1.45;;;15.10;76.60;;;;;;5111289;27;20118;-76
2021/07/30 00:39:56;;;;;;;2.45;1.02;;;15.10;76.70;;;;;;5111249;27;20047;-76
2021/07/30 00:42:23;;;;;;;3.05;1.17;;;15.10;76.80;;;;;;5117404;27;20092;-76
2021/07/30 00:44:50;;;;;;;2.08;1.00;;;15.10;76.80;;;;;;5107674;27;20028;-76
2021/07/30 00:47:17;;;;;;;3.53;1.15;;;15.00;76.80;;;;;;5109311;27;20044;-76
2021/07/30 00:49:44;;;;;;;2.88;1.20;;;15.00;76.90;;;;;;5111138;27;20414;-76
2021/07/30 00:52:13;;;;;;;2.72;1.45;;;15.00;77.00;;;;;;5110531;27;20515;-76
2021/07/30 00:54:40;;;;;;;2.53;1.13;;;15.00;77.00;;;;;;5108513;27;20556;-76
2021/07/30 00:57:07;;;;;;;5.05;1.08;;;15.00;77.10;;;;;;5109369;27;20039;-76
2021/07/30 00:59:35;;;;;;;3.00;1.08;;;15.00;77.20;;;;;;5120494;27;20051;-76
2021/07/30 01:02:02;;;;;;;3.45;1.08;;;14.90;77.20;;;;;;5108857;27;20462;-75
2021/07/30 01:04:29;;;;;;;2.67;1.20;;;14.90;77.20;;;;;;5107043;27;20126;-76
2021/07/30 01:06:57;;;;;;;4.18;1.08;;;14.90;77.20;;;;;;5108132;27;20041;-76
2021/07/30 01:09:24;;;;;;;5.38;1.20;;;14.90;77.30;;;;;;5108326;27;20035;-76
2021/07/30 01:11:51;;;;;;;2.15;1.00;;;14.90;77.40;;;;;;5106182;27;20039;-76
2021/07/30 01:14:18;;;;;;;2.00;1.10;;;14.90;77.40;;;;;;5090909;28;20040;-76
2021/07/30 01:16:45;;;;;;;3.38;1.10;;;14.90;77.40;;;;;;5104200;28;20050;-76
2021/07/30 01:19:30;;;;;;;3.28;1.30;;;14.80;77.40;;;;;;5111292;27;20039;-76
2021/07/30 01:22:06;;;;;;;4.05;1.48;;;14.80;77.40;;;;;;5107048;27;20048;-76
2021/07/30 01:24:33;;;;;;;2.22;1.17;;;14.80;77.60;;;;;;5108153;27;20479;-76
2021/07/30 01:27:01;;;;;;;3.05;1.13;;;14.80;77.60;;;;;;5095896;28;20435;-76
2021/07/30 01:29:29;;;;;;;2.75;1.08;;;14.80;77.60;;;;;;5113545;27;20040;-76
2021/07/30 01:31:57;;;;;;;3.47;1.20;;;14.80;77.70;;;;;;5107856;27;20065;-76
2021/07/30 01:34:24;;;;;;;2.47;1.20;;;14.70;77.70;;;;;;5108548;27;20043;-76
2021/07/30 01:36:51;;;;;;;3.13;1.17;;;14.70;77.80;;;;;;5113358;27;20517;-76
2021/07/30 01:39:18;;;;;;;2.28;1.15;;;14.70;77.80;;;;;;5110254;27;20066;-76
2021/07/30 01:41:45;;;;;;;3.78;1.02;;;14.70;77.90;;;;;;5094253;27;20035;-76
2021/07/30 01:44:14;;;;;;;3.05;1.33;;;14.70;77.90;;;;;;5112931;27;20061;-76
2021/07/30 01:46:42;;;;;;;3.03;1.30;;;14.60;77.90;;;;;;5101865;28;20039;-76
2021/07/30 01:49:09;;;;;;;4.28;1.60;;;14.60;78.00;;;;;;5125126;27;20058;-77
2021/07/30 01:51:36;;;;;;;4.40;1.30;;;14.60;78.00;;;;;;5108075;27;20176;-76
2021/07/30 01:54:03;;;;;;;4.57;1.60;;;14.50;78.00;;;;;;5108673;27;20070;-76
2021/07/30 01:56:30;;;;;;;3.30;1.50;;;14.50;78.00;;;;;;5103700;28;20101;-76
2021/07/30 01:58:57;;;;;;;3.55;1.42;;;14.50;78.10;;;;;;5104899;28;20058;-76
2021/07/30 02:01:24;;;;;;;4.45;1.40;;;14.50;78.10;;;;;;5081264;28;20028;-75
2021/07/30 02:03:51;;;;;;;2.90;1.02;;;14.40;78.20;;;;;;5106031;28;20089;-76
2021/07/30 02:06:18;;;;;;;3.88;1.23;;;14.40;78.20;;;;;;5090273;28;20032;-76
2021/07/30 02:08:45;;;;;;;2.20;1.00;;;14.40;78.20;;;;;;5109236;28;20043;-76
2021/07/30 02:11:13;;;;;;;1.92;0.98;;;14.40;78.30;;;;;;5109155;28;20193;-76
2021/07/30 02:16:26;;;;;;;3.83;1.25;;;14.40;78.50;;;;;;5112555;28;20100;-76
2021/07/30 02:18:53;;;;;;;2.30;0.93;;;14.40;78.50;;;;;;5110408;28;20044;-76
2021/07/30 02:21:20;;;;;;;3.50;1.52;;;14.30;78.50;;;;;;5106869;28;20043;-76
2021/07/30 02:23:47;;;;;;;5.05;1.27;;;14.30;78.50;;;;;;5108656;28;20059;-76
2021/07/30 02:26:14;;;;;;;2.83;1.20;;;14.30;78.50;;;;;;5110808;28;20533;-76
2021/07/30 02:28:41;;;;;;;3.05;1.42;;;14.30;78.50;;;;;;5106348;28;20035;-76
2021/07/30 02:31:08;;;;;;;2.78;1.23;;;14.30;78.90;;;;;;5102048;28;20085;-76
2021/07/30 02:33:35;;;;;;;2.30;1.27;;;14.30;78.70;;;;;;5088185;28;20040;-76
2021/07/30 02:36:02;;;;;;;3.40;1.40;;;14.30;78.60;;;;;;5106692;28;20036;-76
2021/07/30 02:38:29;;;;;;;3.10;1.23;;;14.30;78.70;;;;;;5108263;28;20067;-76
2021/07/30 02:40:56;;;;;;;2.88;1.20;;;14.30;78.70;;;;;;5109182;28;20035;-76
2021/07/30 02:43:23;;;;;;;2.47;1.05;;;14.30;78.80;;;;;;5073596;28;20122;-76
2021/07/30 02:45:50;;;;;;;2.47;1.10;;;14.30;78.80;;;;;;5107514;28;20044;-76
2021/07/30 02:48:17;;;;;;;3.22;1.25;;;14.20;78.80;;;;;;5107459;28;20032;-77
2021/07/30 02:50:44;;;;;;;4.97;1.35;;;14.20;78.80;;;;;;5111714;28;20061;-76
2021/07/30 02:53:11;;;;;;;3.17;1.08;;;14.20;78.90;;;;;;5088199;28;20442;-76
2021/07/30 02:55:38;;;;;;;2.40;0.98;;;14.20;78.90;;;;;;5111779;27;20078;-76
2021/07/30 02:58:05;;;;;;;3.78;1.35;;;14.20;78.90;;;;;;5110040;27;20082;-76
2021/07/30 03:00:32;;;;;;;1.80;1.00;;;14.20;78.90;;;;;;5129055;27;20062;-76
2021/07/30 03:02:59;;;;;;;3.60;1.00;;;14.20;79.00;;;;;;5115370;27;20608;-75
2021/07/30 03:05:26;;;;;;;2.45;0.82;;;14.20;79.00;;;;;;5110604;27;20071;-76
2021/07/30 03:07:53;;;;;;;2.30;1.00;;;14.10;79.10;;;;;;5114987;27;20027;-76
2021/07/30 03:10:20;;;;;;;2.08;1.05;;;14.10;79.10;;;;;;5112089;27;20201;-76
2021/07/30 03:12:47;;;;;;;2.28;1.40;;;14.10;79.10;;;;;;5115099;27;20430;-76
2021/07/30 03:15:14;;;;;;;3.53;1.08;;;14.10;79.20;;;;;;5110152;27;20036;-76
2021/07/30 03:17:41;;;;;;;3.08;1.27;;;14.10;79.20;;;;;;5112813;27;20381;-76
2021/07/30 03:20:09;;;;;;;2.47;0.93;;;14.10;79.20;;;;;;5110463;28;20090;-77
2021/07/30 03:22:36;;;;;;;3.80;1.10;;;14.10;79.40;;;;;;5110955;27;20043;-76
2021/07/30 03:25:03;;;;;;;2.85;1.30;;;14.10;79.40;;;;;;5112200;27;20031;-76
2021/07/30 03:27:30;;;;;;;2.00;0.98;;;14.00;79.30;;;;;;5107596;27;20028;-76
2021/07/30 03:29:57;;;;;;;2.30;1.00;;;14.00;79.40;;;;;;5089224;28;20127;-75
2021/07/30 03:32:24;;;;;;;2.45;0.98;;;14.00;79.50;;;;;;5109595;27;20032;-76
2021/07/30 03:34:51;;;;;;;3.17;1.33;;;14.00;79.50;;;;;;5112233;27;20134;-76
2021/07/30 03:37:18;;;;;;;2.40;0.93;;;14.00;79.50;;;;;;5074234;27;20784;-76
2021/07/30 03:39:45;;;;;;;3.45;1.20;;;14.00;79.60;;;;;;5095394;28;20067;-76
2021/07/30 03:42:12;;;;;;;2.35;1.13;;;14.00;79.60;;;;;;5111209;27;20051;-76
2021/07/30 03:44:39;;;;;;;1.85;0.80;;;13.90;79.60;;;;;;5114672;27;20118;-76
2021/07/30 03:47:06;;;;;;;4.55;1.30;;;14.00;79.70;;;;;;5093225;27;20058;-76
2021/07/30 03:49:33;;;;;;;4.20;1.17;;;13.90;79.60;;;;;;5110362;27;20776;-76
2021/07/30 03:52:00;;;;;;;2.35;1.35;;;13.90;79.70;;;;;;5108332;27;20039;-76
2021/07/30 03:54:27;;;;;;;2.70;0.88;;;14.00;79.70;;;;;;5091159;28;20544;-76
2021/07/30 03:56:54;;;;;;;2.90;1.05;;;14.00;79.70;;;;;;5105332;28;20032;-76
2021/07/30 03:59:21;;;;;;;2.08;1.00;;;14.00;79.70;;;;;;5110981;27;20109;-76
2021/07/30 04:01:48;;;;;;;3.33;1.23;;;14.00;79.70;;;;;;5105263;27;20059;-76
2021/07/30 04:04:16;;;;;;;2.55;1.02;;;14.00;79.70;;;;;;5089923;27;20035;-76
2021/07/30 04:06:44;;;;;;;2.88;1.10;;;14.00;79.60;;;;;;5113841;27;20035;-77
2021/07/30 04:09:12;;;;;;;1.48;0.70;;;14.10;79.60;;;;;;5110971;28;20510;-76
2021/07/30 04:11:39;;;;;;;1.70;0.75;;;14.10;79.60;;;;;;5105663;28;20044;-76
2021/07/30 04:14:07;;;;;;;1.80;0.90;;;14.10;80.10;;;;;;5111726;28;20063;-76
2021/07/30 04:16:35;;;;;;;3.63;0.98;;;14.10;80.10;;;;;;5114946;27;20077;-76
2021/07/30 04:19:03;;;;;;;4.55;1.45;;;14.20;79.50;;;;;;5111933;27;20052;-76
2021/07/30 04:21:30;;;;;;;3.45;1.30;;;14.20;79.40;;;;;;5075679;28;20457;-76
2021/07/30 04:24:00;;;;;;;2.42;0.80;;;14.30;79.50;;;;;;5109803;28;20787;-76
2021/07/30 04:26:28;;;;;;;2.10;0.90;;;14.30;79.40;;;;;;5106578;27;20111;-76
2021/07/30 04:28:55;;;;;;;1.83;0.85;;;14.30;79.40;;;;;;5108873;27;20134;-76
2021/07/30 04:31:22;;;;;;;2.20;0.70;;;14.40;79.40;;;;;;5108884;27;20035;-76
2021/07/30 04:33:49;;;;;;;1.73;0.93;;;14.40;79.40;;;;;;5107843;27;20131;-76
2021/07/30 04:36:16;;;;;;;3.15;1.20;;;14.40;79.40;;;;;;5106327;27;20075;-76
2021/07/30 04:38:44;;;;;;;2.15;1.17;;;14.50;79.50;;;;;;5107636;27;20066;-76
2021/07/30 04:41:11;;;;;;;3.25;1.15;;;14.50;79.50;;;;;;5105173;27;20036;-76
2021/07/30 04:43:38;;;;;;;3.78;1.30;;;14.50;79.50;;;;;;5111681;27;20451;-76
2021/07/30 04:46:14;;;;;;;2.75;0.77;;;14.50;79.50;;;;;;5108745;27;20111;-76
2021/07/30 04:48:42;;;;;;;2.70;1.00;;;14.60;79.50;;;;;;5106119;28;20052;-75
2021/07/30 04:51:09;;;;;;;3.08;1.30;;;14.60;79.60;;;;;;5108983;28;20036;-76
2021/07/30 04:53:36;;;;;;;2.70;0.68;;;14.60;79.50;;;;;;5109229;27;20048;-76
2021/07/30 04:56:04;;;;;;;2.50;1.20;;;14.70;79.50;;;;;;5109017;27;20403;-77
2021/07/30 04:58:31;;;;;;;2.03;0.80;;;14.70;79.50;;;;;;5107571;28;20081;-76
2021/07/30 05:01:02;;;;;;;2.83;1.40;;;14.80;79.40;;;;;;5108060;27;20035;-76
2021/07/30 05:03:30;;;;;;;2.50;0.95;;;14.80;79.40;;;;;;5113568;27;20382;-76
2021/07/30 05:05:57;;;;;;;2.40;1.13;;;14.90;79.40;;;;;;5113619;28;20065;-76
2021/07/30 05:08:24;;;;;;;2.88;1.10;;;14.90;79.30;;;;;;5090533;28;20566;-76
2021/07/30 05:10:51;;;;;;;3.28;1.20;;;15.00;79.30;;;;;;5111740;27;20047;-76
2021/07/30 05:13:20;;;;;;;3.45;0.93;;;15.00;79.20;;;;;;5106205;27;20157;-76
2021/07/30 05:15:47;;;;;;;2.55;1.20;;;15.10;79.30;;;;;;5091201;28;20552;-75
2021/07/30 05:18:14;;;;;;;2.05;1.05;;;15.10;79.30;;;;;;5092466;28;20035;-76
2021/07/30 05:20:41;;;;;;;3.10;1.35;;;15.20;79.30;;;;;;5107042;28;20043;-76
2021/07/30 05:23:09;;;;;;;1.45;0.73;;;15.20;79.30;;;;;;5106420;28;20114;-76
2021/07/30 05:25:36;;;;;;;2.08;1.00;;;15.30;79.30;;;;;;5120096;27;20035;-76
2021/07/30 05:28:03;;;;;;;2.08;0.95;;;15.20;79.20;;;;;;5108065;28;20096;-76
2021/07/30 05:30:31;;;;;;;1.50;0.70;;;15.30;79.30;;;;;;5108193;27;20870;-76
2021/07/30 05:32:58;;;;;;;2.05;0.80;;;15.30;79.30;;;;;;5107758;28;21724;-76
2021/07/30 05:35:25;;;;;;;2.33;0.98;;;15.30;79.30;;;;;;5091549;28;20126;-76
2021/07/30 05:37:52;;;;;;;2.58;0.95;;;15.40;79.30;;;;;;5110650;27;20047;-76
2021/07/30 05:40:19;;;;;;;3.70;1.20;;;15.40;79.20;;;;;;5093069;28;20059;-76
2021/07/30 05:42:46;;;;;;;2.92;1.00;;;15.50;79.20;;;;;;5075252;28;20039;-76
2021/07/30 05:45:13;;;;;;;2.25;0.80;;;15.60;79.00;;;;;;5106619;27;20036;-76
2021/07/30 05:47:48;;;;;;;5.18;1.25;;;15.80;78.90;;;;;;5112582;28;20036;-76
2021/07/30 05:50:16;;;;;;;1.77;0.70;;;15.90;78.60;;;;;;5111058;27;20387;-76
2021/07/30 05:52:42;;;;;;;2.33;1.00;;;16.00;78.40;;;;;;5106333;28;20062;-76
2021/07/30 05:55:10;;;;;;;1.70;0.85;;;16.10;78.20;;;;;;5106768;28;20036;-76
2021/07/30 05:57:37;;;;;;;1.95;1.00;;;16.20;78.10;;;;;;5073995;28;20116;-76
2021/07/30 06:00:04;;;;;;;3.13;1.13;;;16.30;78.00;;;;;;5110114;28;20043;-76
2021/07/30 06:02:35;;;;;;;1.77;0.67;;;16.40;77.90;;;;;;5106305;28;20040;-76
2021/07/30 06:05:04;;;;;;;3.00;1.08;;;16.40;77.80;;;;;;5105938;28;20044;-75
2021/07/30 06:07:34;;;;;;;2.05;0.77;;;16.50;77.80;;;;;;5107696;28;20071;-76
2021/07/30 06:10:01;;;;;;;3.30;1.33;;;16.60;77.70;;;;;;5106286;28;20082;-76
2021/07/30 06:12:29;;;;;;;3.45;1.67;;;16.80;77.40;;;;;;5109376;28;20033;-76
2021/07/30 06:14:56;;;;;;;1.85;0.95;;;17.00;77.20;;;;;;5106985;28;20120;-76
2021/07/30 06:17:23;;;;;;;3.15;0.90;;;17.10;76.80;;;;;;5097208;28;20479;-76
2021/07/30 06:19:53;;;;;;;2.90;1.35;;;17.30;76.60;;;;;;5106732;28;20039;-76
2021/07/30 06:22:25;;;;;;;4.18;1.35;;;17.40;76.30;;;;;;5105400;28;20058;-76
2021/07/30 06:24:52;;;;;;;3.33;0.77;;;17.50;76.20;;;;;;5102696;28;20081;-76
2021/07/30 06:27:20;;;;;;;4.90;1.83;;;17.50;76.10;;;;;;5090681;28;20063;-76
2021/07/30 06:29:47;;;;;;;2.28;1.02;;;17.50;76.10;;;;;;5109828;27;20049;-76
2021/07/30 06:32:14;;;;;;;5.45;1.85;;;17.50;76.10;;;;;;5116132;27;20089;-76
2021/07/30 06:34:40;;;;;;;4.93;2.05;;;17.60;76.00;;;;;;5112196;27;20097;-76
2021/07/30 06:37:07;;;;;;;3.00;1.55;;;17.70;75.90;;;;;;5115469;27;20083;-76
2021/07/30 06:39:34;;;;;;;4.97;2.53;;;17.70;75.70;;;;;;5114396;27;20067;-76
2021/07/30 06:42:02;;;;;;;4.50;2.10;;;17.80;75.30;;;;;;5105333;27;20418;-76
2021/07/30 06:44:49;;;;;;;6.38;2.30;;;17.90;75.00;;;;;;5109443;27;20043;-76
2021/07/30 06:47:19;;;;;;;4.50;2.35;;;18.10;74.70;;;;;;5113402;27;20440;-76
2021/07/30 06:49:45;;;;;;;4.85;2.08;;;18.10;74.70;;;;;;5114899;27;20039;-76
2021/07/30 06:52:12;;;;;;;7.88;3.20;;;18.10;74.50;;;;;;5114624;28;20767;-76
2021/07/30 06:54:41;;;;;;;5.57;2.70;;;18.20;74.40;;;;;;5110229;28;20036;-76
2021/07/30 06:57:08;;;;;;;3.67;2.08;;;18.30;74.30;;;;;;5112496;28;20071;-81
2021/07/30 06:59:35;;;;;;;3.13;1.65;;;18.30;74.20;;;;;;5115863;28;20070;-79
2021/07/30 07:02:03;;;;;;;2.67;1.00;;;18.50;74.10;;;;;;5116040;28;20487;-80
2021/07/30 07:04:30;;;;;;;4.50;1.73;;;18.60;74.00;;;;;;5116355;28;20048;-79
2021/07/30 07:06:57;;;;;;;3.67;1.73;;;18.70;73.80;;;;;;5098407;28;20032;-80
2021/07/30 07:09:27;;;;;;;3.58;1.17;;;18.80;73.70;;;;;;5098744;28;20522;-79
2021/07/30 07:11:54;;;;;;;2.50;1.20;;;18.90;73.60;;;;;;5096614;28;20067;-79
2021/07/30 07:14:21;;;;;;;6.13;1.80;;;19.00;73.60;;;;;;5111972;27;20036;-80
2021/07/30 07:16:48;;;;;;;7.97;1.80;;;19.00;73.50;;;;;;5095657;28;20126;-79
2021/07/30 07:19:15;;;;;;;2.65;1.30;;;19.10;73.30;;;;;;5103521;28;20494;-80
2021/07/30 07:21:42;;;;;;;4.90;1.63;;;19.10;73.20;;;;;;5097663;28;20036;-80
2021/07/30 07:24:09;;;;;;;3.15;1.08;;;19.10;73.20;;;;;;5104744;28;20451;-77
2021/07/30 07:26:37;;;;;;;3.25;0.98;;;19.20;73.20;;;;;;5092677;28;20052;-78
2021/07/30 07:29:05;;;;;;;4.47;1.30;;;19.20;73.20;;;;;;5106422;28;20054;-80
2021/07/30 07:31:35;;;;;;;2.70;1.30;;;19.20;73.20;;;;;;5121933;27;20036;-78
2021/07/30 07:34:02;;;;;;;3.28;1.38;;;19.30;73.10;;;;;;5105518;28;20035;-77
2021/07/30 07:36:29;;;;;;;2.15;0.98;;;19.40;72.90;;;;;;5104495;27;20043;-79
2021/07/30 07:38:57;;;;;;;4.18;1.08;;;19.50;72.80;;;;;;5103134;28;20365;-78
2021/07/30 07:41:25;;;;;;;2.88;1.10;;;19.60;72.60;;;;;;5088211;28;20123;-76
2021/07/30 07:43:52;;;;;;;2.25;0.85;;;19.60;72.60;;;;;;5104395;28;20096;-79
2021/07/30 07:46:19;;;;;;;2.78;1.30;;;19.60;72.50;;;;;;5102410;28;20056;-79
2021/07/30 07:48:48;;;;;;;2.03;0.88;;;19.70;72.50;;;;;;5087412;28;20070;-79
2021/07/30 07:51:15;;;;;;;2.88;0.95;;;19.80;72.40;;;;;;5114030;27;20032;-79
2021/07/30 07:53:42;;;;;;;2.58;1.10;;;19.80;72.30;;;;;;5096715;28;20043;-77
2021/07/30 07:56:11;;;;;;;2.40;0.98;;;19.90;72.30;;;;;;5079265;27;20035;-78
2021/07/30 07:58:38;;;;;;;3.40;1.48;;;19.90;72.30;;;;;;5107733;27;20059;-79
2021/07/30 08:01:05;;;;;;;2.85;1.00;;;19.90;72.30;;;;;;5114561;27;20043;-79
2021/07/30 08:03:32;;;;;;;1.63;0.70;;;19.90;72.30;;;;;;5115966;27;20040;-81
2021/07/30 08:05:59;;;;;;;4.22;1.55;;;20.00;72.30;;;;;;5089139;28;20466;-80
2021/07/30 08:08:26;;;;;;;2.28;1.08;;;20.00;72.20;;;;;;5077877;28;20062;-78
2021/07/30 08:11:03;;;;;;;3.28;1.13;;;20.10;72.10;;;;;;5085091;28;20028;-82
2021/07/30 08:13:31;;;;;;;1.85;1.08;;;20.20;72.00;;;;;;5113730;27;20164;-83
2021/07/30 08:15:58;;;;;;;3.65;0.80;;;20.40;71.90;;;;;;5102148;28;20799;-81
2021/07/30 08:18:30;;;;;;;2.53;1.40;;;20.60;71.60;;;;;;5090927;28;20048;-79
2021/07/30 08:20:57;;;;;;;1.73;0.63;;;20.80;71.20;;;;;;5107032;28;20044;-79
2021/07/30 08:23:24;;;;;;;2.28;0.60;;;20.90;71.00;;;;;;5097576;28;20040;-81
2021/07/30 08:25:51;;;;;;;5.28;1.33;;;21.10;71.40;;;;;;5074769;28;20048;-81
2021/07/30 08:28:18;;;;;;;1.77;1.02;;;21.20;70.40;;;;;;5085437;28;20036;-78
2021/07/30 08:30:45;;;;;;;2.72;1.20;;;21.30;70.20;;;;;;5101825;28;20447;-78
2021/07/30 08:33:12;;;;;;;2.92;1.23;;;21.50;70.10;;;;;;5107673;28;20043;-79
2021/07/30 08:35:40;;;;;;;3.28;0.82;;;21.60;69.80;;;;;;5100576;28;20067;-79
2021/07/30 08:38:07;;;;;;;2.35;1.15;;;21.80;69.70;;;;;;5087398;28;20033;-79
2021/07/30 08:40:39;;;;;;;2.35;1.13;;;21.90;69.50;;;;;;5097432;27;20067;-81
2021/07/30 08:43:06;;;;;;;3.97;1.20;;;22.00;69.20;;;;;;5100203;28;20523;-79
2021/07/30 08:45:33;;;;;;;3.13;0.90;;;22.00;69.20;;;;;;5106706;28;20071;-80
2021/07/30 08:48:00;;;;;;;2.75;0.70;;;22.00;69.20;;;;;;5059515;28;20458;-80
2021/07/30 08:50:31;;;;;;;3.25;0.90;;;22.00;69.20;;;;;;5091140;28;20038;-82
2021/07/30 08:53:05;;;;;;;1.55;0.60;;;22.00;69.20;;;;;;5102153;28;20040;-82
2021/07/30 08:55:32;;;;;;;2.35;0.60;;;22.00;69.20;;;;;;5093848;28;20424;-80
2021/07/30 08:57:59;;;;;;;3.70;0.90;;;21.90;69.20;;;;;;5078831;28;20083;-77
2021/07/30 09:00:26;;;;;;;4.20;1.42;;;22.00;69.00;;;;;;5099483;28;20682;-76
2021/07/30 09:02:56;;;;;;;2.95;1.05;;;22.10;68.80;;;;;;5103222;28;20100;-76
2021/07/30 09:05:31;;;;;;;2.88;1.10;;;22.10;68.40;;;;;;5098130;27;20847;-76
2021/07/30 09:08:00;;;;;;;4.47;1.20;;;22.20;68.20;;;;;;5101476;28;20047;-75
2021/07/30 09:10:27;;;;;;;3.03;1.70;;;22.30;68.00;;;;;;5105164;28;20113;-75
2021/07/30 09:13:18;;;;;;;5.03;1.83;;;22.30;67.40;;;;;;5104051;28;20054;-75
2021/07/30 09:15:49;;;;;;;3.33;1.58;;;22.20;66.40;;;;;;5104311;28;20067;-76
2021/07/30 09:18:26;;;;;;;2.90;1.33;;;22.20;66.80;;;;;;5104960;28;20399;-75
2021/07/30 09:21:28;;;;;;;2.42;1.10;;;22.40;66.60;;;;;;5099466;28;20040;-79
2021/07/30 09:24:01;;;;;;;2.05;1.20;;;22.60;66.30;;;;;;5110044;28;20043;-79
2021/07/30 09:26:40;;;;;;;1.98;0.90;;;22.70;65.90;;;;;;5089955;28;20060;-78
2021/07/30 09:29:10;;;;;;;2.75;0.90;;;22.80;65.80;;;;;;5099483;28;20040;-78
2021/07/30 09:31:45;;;;;;;1.13;0.65;;;22.90;65.80;;;;;;5107987;28;20127;-78
2021/07/30 09:34:23;;;;;;;1.88;0.60;;;23.00;65.60;;;;;;5110405;28;20085;-78
2021/07/30 09:36:59;;;;;;;1.08;0.50;;;23.10;66.20;;;;;;5111396;28;20043;-78
2021/07/30 09:39:40;;;;;;;2.53;0.95;;;23.30;65.50;;;;;;5112579;28;20036;-78
2021/07/30 09:42:20;;;;;;;1.35;0.68;;;23.30;64.80;;;;;;5104823;28;20048;-79
2021/07/30 09:44:54;;;;;;;1.85;0.88;;;23.40;64.70;;;;;;5109634;28;20043;-79
2021/07/30 09:47:24;;;;;;;1.20;0.60;;;23.60;64.60;;;;;;5096439;28;20047;-78
2021/07/30 09:49:55;;;;;;;1.42;0.70;;;23.90;64.30;;;;;;5089233;28;20455;-78
2021/07/30 09:52:24;;;;;;;6.47;1.40;;;24.10;63.80;;;;;;5090210;28;20051;-78
2021/07/30 09:54:54;;;;;;;4.72;1.00;;;24.20;62.10;;;;;;5110187;28;20114;-78
2021/07/30 09:57:23;;;;;;;4.10;1.13;;;24.20;62.10;;;;;;5084940;28;20131;-82
2021/07/30 09:59:55;;;;;;;2.83;1.65;;;24.20;62.10;;;;;;5104560;28;20052;-79
2021/07/30 10:02:22;;;;;;;2.70;1.00;;;24.20;60.90;;;;;;5107828;28;20063;-80
2021/07/30 10:04:51;;;;;;;1.35;0.63;;;24.20;61.40;;;;;;5108487;28;20165;-79
2021/07/30 10:07:20;;;;;;;1.23;0.60;;;24.30;61.50;;;;;;5102862;28;20114;-80
2021/07/30 10:09:53;;;;;;;1.40;0.68;;;24.50;61.50;;;;;;5093752;28;20028;-78
2021/07/30 10:12:21;;;;;;;2.88;0.70;;;24.50;61.10;;;;;;5102008;28;20162;-78
2021/07/30 10:14:49;;;;;;;1.40;0.68;;;24.60;61.30;;;;;;5097967;28;20044;-82
2021/07/30 10:17:30;;;;;;;3.08;1.02;;;24.70;61.10;;;;;;5104338;28;20203;-84
2021/07/30 10:19:59;;;;;;;1.90;0.70;;;24.70;60.30;;;;;;5089112;28;20496;-82
2021/07/30 10:22:44;;;;;;;1.30;0.80;;;24.80;60.70;;;;;;5091808;28;20046;-83
2021/07/30 10:25:26;;;;;;;1.83;0.88;;;25.00;60.60;;;;;;5089157;28;20055;-83
2021/07/30 10:28:01;;;;;;;2.58;0.82;;;25.00;59.50;;;;;;5095374;28;20456;-81
2021/07/30 10:30:32;;;;;;;2.00;0.80;;;25.00;60.30;;;;;;5095233;28;20055;-81
2021/07/30 10:33:02;;;;;;;1.87;0.70;;;25.00;59.60;;;;;;5092920;28;20040;-90
2021/07/30 10:35:29;;;;;;;1.75;0.85;;;25.00;59.40;;;;;;5103229;28;20437;-80
2021/07/30 10:38:16;;;;;;;2.95;1.25;;;24.90;59.50;;;;;;5101411;28;20043;-80
2021/07/30 10:41:03;;;;;;;2.08;1.00;;;24.70;59.10;;;;;;5085700;28;20415;-80
2021/07/30 10:43:33;;;;;;;2.08;1.00;;;24.70;59.60;;;;;;5079121;28;20054;-86
2021/07/30 10:46:10;;;;;;;1.55;0.80;;;24.60;59.70;;;;;;5084478;28;20044;-82
2021/07/30 10:48:39;;;;;;;1.92;1.00;;;24.70;59.50;;;;;;5105549;28;20494;-82
2021/07/30 10:51:18;;;;;;;2.97;1.52;;;24.80;59.50;;;;;;5103993;28;20110;-86
2021/07/30 10:54:05;;;;;;;3.30;1.40;;;24.90;58.70;;;;;;5105324;28;20067;-86
2021/07/30 10:56:33;;;;;;;2.72;1.30;;;24.90;58.60;;;;;;5092214;28;20043;-84
2021/07/30 10:59:03;;;;;;;2.72;1.55;;;24.90;58.50;;;;;;5093033;28;20048;-87
2021/07/30 11:01:35;;;;;;;3.63;1.40;;;25.20;58.10;;;;;;5108372;28;20491;-82
2021/07/30 11:04:04;;;;;;;2.40;1.40;;;25.30;57.40;;;;;;5103857;28;20040;-81
2021/07/30 11:06:31;;;;;;;2.45;1.30;;;25.40;57.30;;;;;;5103906;28;20035;-82
2021/07/30 11:11:39;;;;;;;2.53;1.17;;;25.80;57.40;;;;;;5104803;28;20040;-84
2021/07/30 11:14:21;;;;;;;1.77;1.00;;;26.00;56.80;;;;;;5108423;27;20438;-79
2021/07/30 11:16:55;;;;;;;2.85;1.10;;;26.00;56.70;;;;;;5111187;28;20048;-81
2021/07/30 11:19:27;;;;;;;1.90;1.10;;;26.00;56.60;;;;;;5088527;28;20117;-80
2021/07/30 11:21:56;;;;;;;1.55;0.85;;;25.90;57.10;;;;;;5109621;27;20090;-82
2021/07/30 11:24:24;;;;;;;2.38;1.33;;;26.00;57.10;;;;;;5101924;28;20118;-82
2021/07/30 11:26:51;;;;;;;2.30;0.80;;;26.00;57.30;;;;;;5094878;28;20039;-82
2021/07/30 11:29:28;;;;;;;1.98;0.73;;;26.10;57.10;;;;;;5109767;28;20131;-81
2021/07/30 11:31:56;;;;;;;2.00;0.82;;;26.30;57.20;;;;;;5111258;28;20105;-81
2021/07/30 11:34:28;;;;;;;2.35;0.70;;;26.40;56.60;;;;;;5104134;27;20039;-82
2021/07/30 11:36:57;;;;;;;1.63;0.82;;;26.40;56.60;;;;;;5106986;28;20044;-79
2021/07/30 11:39:32;;;;;;;2.35;1.10;;;26.50;56.60;;;;;;5096570;27;20593;-80
2021/07/30 11:41:59;;;;;;;2.85;1.00;;;26.80;56.90;;;;;;5106277;28;20040;-80
2021/07/30 11:44:26;;;;;;;2.70;1.10;;;26.90;55.40;;;;;;5114036;27;20090;-81
2021/07/30 11:46:59;;;;;;;1.85;0.93;;;27.30;55.00;;;;;;5091167;28;20050;-85
2021/07/30 11:49:34;;;;;;;1.55;1.17;;;27.50;54.90;;;;;;5109468;28;20044;-78
2021/07/30 11:52:06;;;;;;;2.72;1.52;;;27.40;54.10;;;;;;5105064;28;20069;-80
2021/07/30 11:54:36;;;;;;;2.55;1.30;;;27.40;53.40;;;;;;5108937;27;20043;-80
2021/07/30 11:57:05;;;;;;;2.40;1.00;;;27.20;54.10;;;;;;5124373;27;20039;-80
2021/07/30 11:59:44;;;;;;;1.73;1.00;;;27.10;54.60;;;;;;5111330;28;20066;-80
2021/07/30 12:02:15;;;;;;;2.00;0.90;;;27.40;54.50;;;;;;5097268;28;20846;-81
2021/07/30 12:04:54;;;;;;;1.47;0.90;;;27.50;54.50;;;;;;5090921;28;20590;-79
2021/07/30 12:07:41;;;;;;;3.55;1.35;;;27.40;54.60;;;;;;5104784;28;20941;-81
2021/07/30 12:10:13;;;;;;;1.92;1.05;;;27.20;53.50;;;;;;5105464;27;20067;-80
2021/07/30 12:12:42;;;;;;;2.33;1.20;;;27.10;54.60;;;;;;5106320;28;20491;-80
2021/07/30 12:15:11;;;;;;;5.50;1.52;;;27.10;54.80;;;;;;5069906;28;20060;-78
2021/07/30 12:17:38;;;;;;;2.92;1.20;;;27.00;54.40;;;;;;5108451;27;20121;-78
2021/07/30 12:20:10;;;;;;;2.13;1.08;;;26.70;54.80;;;;;;5104944;27;20043;-79
2021/07/30 12:22:43;;;;;;;2.58;1.08;;;26.40;55.00;;;;;;5106539;27;20047;-79
2021/07/30 12:25:16;;;;;;;1.60;0.80;;;26.20;55.20;;;;;;5110164;28;20044;-80
2021/07/30 12:27:45;;;;;;;1.83;0.90;;;26.20;55.30;;;;;;5104215;27;20047;-80
2021/07/30 12:30:27;;;;;;;2.20;1.00;;;26.30;55.40;;;;;;5104478;28;20044;-79
2021/07/30 12:32:54;;;;;;;3.30;0.82;;;26.30;55.40;;;;;;5103503;28;20149;-78
2021/07/30 12:35:34;;;;;;;1.52;0.73;;;26.10;55.60;;;;;;5106722;28;20044;-81
2021/07/30 12:38:07;;;;;;;1.42;0.73;;;25.90;55.80;;;;;;5107397;27;20036;-81
2021/07/30 12:40:40;;;;;;;2.80;0.90;;;25.70;56.40;;;;;;5102797;28;20400;-83
2021/07/30 12:43:11;;;;;;;3.05;1.13;;;25.50;56.60;;;;;;5100445;28;20055;-82
2021/07/30 12:45:49;;;;;;;2.55;1.10;;;25.30;56.20;;;;;;5087450;28;20050;-81
2021/07/30 12:48:21;;;;;;;2.90;1.10;;;25.20;56.60;;;;;;5110183;28;20031;-80
2021/07/30 12:50:51;;;;;;;4.28;0.90;;;25.00;56.80;;;;;;5095571;28;20047;-76
2021/07/30 12:53:20;;;;;;;2.17;1.02;;;24.80;56.80;;;;;;5103826;28;20506;-76
2021/07/30 12:56:07;;;;;;;2.63;1.27;;;24.80;57.10;;;;;;5107954;28;20122;-75
2021/07/30 12:58:34;;;;;;;1.85;1.10;;;24.70;56.80;;;;;;5107869;28;20035;-80
2021/07/30 13:01:10;;;;;;;1.85;0.90;;;24.80;56.80;;;;;;5112157;27;20499;-79
2021/07/30 13:03:39;;;;;;;3.03;1.10;;;24.80;56.60;;;;;;5111885;28;20071;-80